EWG7RA LBSF-LUKK
Flight info
| Callsign | EWG7RA |
|---|---|
| Flight time | 1h 0m |
| Altitude | 35000 |
| Route | GOL4S/09 GOL DCT SOMOV DCT BCU DCT BUSES |
| Aircraft | A320/M-SDE3FGHIRWY/LB1 |
Departure
| Time | 2026-05-04 17:45 |
|---|---|
| Airport | Sofia Airport (LBSF) |
Arrival
| Time | 2026-05-04 18:45 |
|---|---|
| Airport | Chişinău International Airport (LUKK) |
| Time | Latitude | Longitude | Altitude | Speed | Heading |
|---|---|---|---|---|---|
| 2026-05-04 17:20 | 42.69071 | 23.41303 | 1746 ft | 0 kts | 64° |
| 2026-05-04 17:34 | 42.69060 | 23.41270 | 1738 ft | 2 kts | 64° |
| 2026-05-04 17:34 | 42.69053 | 23.41250 | 1744 ft | 2 kts | 64° |
| 2026-05-04 17:35 | 42.69050 | 23.41225 | 1738 ft | 0 kts | 161° |
| 2026-05-04 17:38 | 42.69039 | 23.41231 | 1744 ft | 5 kts | 161° |
| 2026-05-04 17:38 | 42.69009 | 23.41217 | 1748 ft | 4 kts | 219° |
| 2026-05-04 17:38 | 42.68994 | 23.41195 | 1748 ft | 3 kts | 227° |
| 2026-05-04 17:38 | 42.68980 | 23.41172 | 1746 ft | 5 kts | 236° |
| 2026-05-04 17:39 | 42.68928 | 23.40974 | 1744 ft | 14 kts | 251° |
| 2026-05-04 17:39 | 42.68910 | 23.40851 | 1742 ft | 13 kts | 275° |
| 2026-05-04 17:39 | 42.68933 | 23.40732 | 1739 ft | 13 kts | 286° |
| 2026-05-04 17:40 | 42.68956 | 23.40625 | 1746 ft | 11 kts | 287° |
| 2026-05-04 17:40 | 42.68977 | 23.40532 | 1742 ft | 9 kts | 287° |
| 2026-05-04 17:40 | 42.69001 | 23.40423 | 1746 ft | 16 kts | 287° |
| 2026-05-04 17:40 | 42.69034 | 23.40273 | 1741 ft | 17 kts | 287° |
| 2026-05-04 17:41 | 42.69070 | 23.40111 | 1746 ft | 19 kts | 287° |
| 2026-05-04 17:41 | 42.69094 | 23.39945 | 1740 ft | 18 kts | 274° |
| 2026-05-04 17:41 | 42.69130 | 23.39782 | 1745 ft | 19 kts | 289° |
| 2026-05-04 17:41 | 42.69161 | 23.39613 | 1745 ft | 18 kts | 299° |
| 2026-05-04 17:42 | 42.69219 | 23.39539 | 1744 ft | 12 kts | 355° |
| 2026-05-04 17:42 | 42.69291 | 23.39548 | 1743 ft | 9 kts | 3° |
| 2026-05-04 17:42 | 42.69350 | 23.39554 | 1738 ft | 8 kts | 4° |
| 2026-05-04 17:42 | 42.69445 | 23.39566 | 1743 ft | 19 kts | 5° |
| 2026-05-04 17:43 | 42.69578 | 23.39580 | 1742 ft | 20 kts | 5° |
| 2026-05-04 17:43 | 42.69681 | 23.39592 | 1746 ft | 5 kts | 5° |
| 2026-05-04 17:43 | 42.69715 | 23.39596 | 1741 ft | 7 kts | 5° |
| 2026-05-04 17:43 | 42.69763 | 23.39613 | 1747 ft | 5 kts | 56° |
| 2026-05-04 17:44 | 42.69766 | 23.39660 | 1742 ft | 5 kts | 90° |
| 2026-05-04 17:44 | 42.69755 | 23.39853 | 1748 ft | 52 kts | 95° |
| 2026-05-04 17:44 | 42.69707 | 23.40662 | 1741 ft | 117 kts | 94° |
| 2026-05-04 17:44 | 42.69630 | 23.42008 | 1749 ft | 167 kts | 94° |
| 2026-05-04 17:45 | 42.69537 | 23.43656 | 2224 ft | 173 kts | 95° |
| 2026-05-04 17:45 | 42.69436 | 23.45290 | 2893 ft | 174 kts | 95° |
| 2026-05-04 17:45 | 42.69324 | 23.46935 | 3535 ft | 176 kts | 95° |
| 2026-05-04 17:45 | 42.69212 | 23.48593 | 4153 ft | 176 kts | 94° |
| 2026-05-04 17:46 | 42.69174 | 23.50248 | 4735 ft | 174 kts | 75° |
| 2026-05-04 17:46 | 42.69726 | 23.51685 | 5168 ft | 179 kts | 50° |
| 2026-05-04 17:46 | 42.70522 | 23.53123 | 5397 ft | 200 kts | 51° |
| 2026-05-04 17:46 | 42.71430 | 23.54696 | 5588 ft | 226 kts | 49° |
| 2026-05-04 17:47 | 42.72472 | 23.56464 | 5864 ft | 252 kts | 50° |
| 2026-05-04 17:47 | 42.73586 | 23.58385 | 6476 ft | 262 kts | 50° |
| 2026-05-04 17:47 | 42.74717 | 23.60354 | 7312 ft | 265 kts | 51° |
| 2026-05-04 17:47 | 42.75851 | 23.62338 | 8204 ft | 264 kts | 51° |
| 2026-05-04 17:48 | 42.76965 | 23.64309 | 9199 ft | 262 kts | 51° |
| 2026-05-04 17:48 | 42.78081 | 23.66288 | 10004 ft | 265 kts | 51° |
| 2026-05-04 17:48 | 42.79238 | 23.68330 | 10403 ft | 283 kts | 51° |
| 2026-05-04 17:48 | 42.80478 | 23.70511 | 10627 ft | 305 kts | 51° |
| 2026-05-04 17:49 | 42.81807 | 23.72840 | 11139 ft | 312 kts | 51° |
| 2026-05-04 17:49 | 42.83137 | 23.75172 | 11999 ft | 313 kts | 51° |
| 2026-05-04 17:49 | 42.84482 | 23.77533 | 12707 ft | 318 kts | 52° |
| 2026-05-04 17:49 | 42.85841 | 23.79931 | 13413 ft | 322 kts | 52° |
| 2026-05-04 17:50 | 42.87214 | 23.82361 | 14100 ft | 325 kts | 52° |
| 2026-05-04 17:50 | 42.88601 | 23.84820 | 14729 ft | 329 kts | 52° |
| 2026-05-04 17:50 | 42.90003 | 23.87302 | 15338 ft | 333 kts | 52° |
| 2026-05-04 17:50 | 42.91424 | 23.89820 | 15934 ft | 337 kts | 52° |
| 2026-05-04 17:51 | 42.92862 | 23.92369 | 16531 ft | 341 kts | 52° |
| 2026-05-04 17:51 | 42.94312 | 23.94947 | 17127 ft | 344 kts | 52° |
| 2026-05-04 17:51 | 42.95780 | 23.97556 | 17704 ft | 348 kts | 52° |
| 2026-05-04 17:51 | 42.97263 | 24.00192 | 18282 ft | 352 kts | 52° |
| 2026-05-04 17:52 | 42.98766 | 24.02867 | 18800 ft | 356 kts | 52° |
| 2026-05-04 17:52 | 43.00279 | 24.05563 | 19303 ft | 359 kts | 52° |
| 2026-05-04 17:52 | 43.01810 | 24.08290 | 19799 ft | 363 kts | 51° |
| 2026-05-04 17:52 | 43.03351 | 24.11037 | 20306 ft | 366 kts | 51° |
| 2026-05-04 17:53 | 43.04912 | 24.13823 | 20807 ft | 370 kts | 51° |
| 2026-05-04 17:53 | 43.06483 | 24.16637 | 21313 ft | 374 kts | 51° |
| 2026-05-04 17:53 | 43.08062 | 24.19470 | 21798 ft | 377 kts | 51° |
| 2026-05-04 17:53 | 43.09769 | 24.22151 | 22282 ft | 379 kts | 42° |
| 2026-05-04 17:54 | 43.11817 | 24.24440 | 22770 ft | 382 kts | 36° |
| 2026-05-04 17:54 | 43.13961 | 24.26630 | 23252 ft | 386 kts | 36° |
| 2026-05-04 17:54 | 43.16121 | 24.28846 | 23708 ft | 389 kts | 36° |
| 2026-05-04 17:54 | 43.18293 | 24.31083 | 24087 ft | 393 kts | 36° |
| 2026-05-04 17:55 | 43.20482 | 24.33344 | 24455 ft | 396 kts | 36° |
| 2026-05-04 17:55 | 43.22693 | 24.35630 | 24840 ft | 399 kts | 36° |
| 2026-05-04 17:55 | 43.24916 | 24.37931 | 25208 ft | 401 kts | 36° |
| 2026-05-04 17:55 | 43.27155 | 24.40246 | 25566 ft | 404 kts | 36° |
| 2026-05-04 17:56 | 43.29408 | 24.42577 | 25928 ft | 407 kts | 36° |
| 2026-05-04 17:56 | 43.31681 | 24.44927 | 26242 ft | 411 kts | 36° |
| 2026-05-04 17:56 | 43.33968 | 24.47297 | 26574 ft | 414 kts | 36° |
| 2026-05-04 17:56 | 43.36270 | 24.49691 | 26906 ft | 416 kts | 36° |
| 2026-05-04 17:57 | 43.38587 | 24.52106 | 27230 ft | 419 kts | 36° |
| 2026-05-04 17:57 | 43.40923 | 24.54540 | 27555 ft | 422 kts | 36° |
| 2026-05-04 17:57 | 43.43268 | 24.56980 | 27869 ft | 424 kts | 36° |
| 2026-05-04 17:57 | 43.45631 | 24.59438 | 28192 ft | 427 kts | 36° |
| 2026-05-04 17:58 | 43.48009 | 24.61916 | 28492 ft | 430 kts | 36° |
| 2026-05-04 17:58 | 43.50396 | 24.64410 | 28783 ft | 433 kts | 37° |
| 2026-05-04 17:58 | 43.52806 | 24.66934 | 29067 ft | 435 kts | 36° |
| 2026-05-04 17:58 | 43.55222 | 24.69466 | 29358 ft | 438 kts | 36° |
| 2026-05-04 17:59 | 43.57658 | 24.72016 | 29642 ft | 440 kts | 37° |
| 2026-05-04 17:59 | 43.60076 | 24.74550 | 29906 ft | 443 kts | 37° |
| 2026-05-04 17:59 | 43.65010 | 24.79735 | 30370 ft | 448 kts | 36° |
| 2026-05-04 18:00 | 43.67495 | 24.82348 | 30603 ft | 450 kts | 36° |
| 2026-05-04 18:00 | 43.70046 | 24.84855 | 30831 ft | 450 kts | 30° |
| 2026-05-04 18:00 | 43.72817 | 24.86878 | 31054 ft | 451 kts | 25° |
| 2026-05-04 18:00 | 43.75654 | 24.88761 | 31283 ft | 452 kts | 25° |
| 2026-05-04 18:01 | 43.78484 | 24.90645 | 31596 ft | 451 kts | 24° |
| 2026-05-04 18:01 | 43.81310 | 24.92530 | 31903 ft | 450 kts | 24° |
| 2026-05-04 18:01 | 43.83176 | 24.93777 | 32111 ft | 450 kts | 25° |
| 2026-05-04 18:02 | 43.88804 | 24.97547 | 32736 ft | 448 kts | 25° |
| 2026-05-04 18:02 | 43.91610 | 24.99428 | 33045 ft | 447 kts | 25° |
| 2026-05-04 18:02 | 43.94408 | 25.01309 | 33359 ft | 446 kts | 25° |
| 2026-05-04 18:02 | 43.97200 | 25.03190 | 33670 ft | 445 kts | 25° |
| 2026-05-04 18:03 | 43.99987 | 25.05068 | 33976 ft | 445 kts | 25° |
| 2026-05-04 18:03 | 44.02765 | 25.06937 | 34259 ft | 444 kts | 25° |
| 2026-05-04 18:03 | 44.05538 | 25.08804 | 34529 ft | 442 kts | 25° |
| 2026-05-04 18:03 | 44.08304 | 25.10663 | 34790 ft | 441 kts | 25° |
| 2026-05-04 18:04 | 44.11067 | 25.12521 | 34987 ft | 441 kts | 25° |
| 2026-05-04 18:04 | 44.13815 | 25.14376 | 35040 ft | 435 kts | 24° |
| 2026-05-04 18:05 | 44.21912 | 25.19871 | 35041 ft | 430 kts | 24° |
| 2026-05-04 18:05 | 44.27285 | 25.23517 | 35038 ft | 429 kts | 24° |
| 2026-05-04 18:06 | 44.35329 | 25.28994 | 35039 ft | 428 kts | 24° |
| 2026-05-04 18:06 | 44.40646 | 25.32626 | 35034 ft | 428 kts | 24° |
| 2026-05-04 18:07 | 44.46000 | 25.36283 | 35028 ft | 428 kts | 24° |
| 2026-05-04 18:07 | 44.51339 | 25.39949 | 35031 ft | 428 kts | 24° |
| 2026-05-04 18:08 | 44.56686 | 25.43626 | 35020 ft | 427 kts | 24° |
| 2026-05-04 18:08 | 44.62028 | 25.47308 | 35019 ft | 427 kts | 24° |
| 2026-05-04 18:09 | 44.72711 | 25.54676 | 35021 ft | 428 kts | 24° |
| 2026-05-04 18:10 | 44.78014 | 25.58345 | 35028 ft | 428 kts | 24° |
| 2026-05-04 18:10 | 44.83353 | 25.62050 | 35027 ft | 428 kts | 24° |
| 2026-05-04 18:11 | 44.88690 | 25.65765 | 35038 ft | 428 kts | 24° |
| 2026-05-04 18:11 | 44.94028 | 25.69480 | 35053 ft | 428 kts | 25° |
| 2026-05-04 18:12 | 44.99372 | 25.73220 | 35064 ft | 428 kts | 25° |
| 2026-05-04 18:12 | 45.04715 | 25.76960 | 35064 ft | 429 kts | 24° |
| 2026-05-04 18:13 | 45.10065 | 25.80702 | 35064 ft | 429 kts | 25° |
| 2026-05-04 18:14 | 45.18096 | 25.86352 | 35065 ft | 429 kts | 25° |
| 2026-05-04 18:14 | 45.23448 | 25.90122 | 35074 ft | 430 kts | 24° |
| 2026-05-04 18:15 | 45.34159 | 25.97698 | 35068 ft | 430 kts | 25° |
| 2026-05-04 18:16 | 45.39489 | 26.01460 | 35080 ft | 431 kts | 24° |
| 2026-05-04 18:16 | 45.44862 | 26.05286 | 35080 ft | 431 kts | 24° |
| 2026-05-04 18:17 | 45.52916 | 26.11041 | 35086 ft | 432 kts | 24° |
| 2026-05-04 18:18 | 45.60979 | 26.16803 | 35078 ft | 432 kts | 25° |
| 2026-05-04 18:18 | 45.66352 | 26.20655 | 35077 ft | 432 kts | 25° |
| 2026-05-04 18:19 | 45.74419 | 26.26449 | 35077 ft | 433 kts | 25° |
| 2026-05-04 18:19 | 45.79805 | 26.30332 | 35076 ft | 433 kts | 25° |
| 2026-05-04 18:20 | 45.85188 | 26.34220 | 35082 ft | 433 kts | 25° |
| 2026-05-04 18:20 | 45.90545 | 26.38099 | 35087 ft | 434 kts | 25° |
| 2026-05-04 18:21 | 45.95924 | 26.42008 | 35080 ft | 433 kts | 25° |
| 2026-05-04 18:21 | 46.01302 | 26.45916 | 35084 ft | 433 kts | 25° |
| 2026-05-04 18:22 | 46.06683 | 26.49837 | 35080 ft | 433 kts | 25° |
| 2026-05-04 18:22 | 46.12007 | 26.53860 | 34463 ft | 433 kts | 32° |
| 2026-05-04 18:23 | 46.14284 | 26.56790 | 33467 ft | 444 kts | 51° |
| 2026-05-04 18:23 | 46.16117 | 26.60346 | 32997 ft | 438 kts | 52° |
| 2026-05-04 18:23 | 46.17927 | 26.63851 | 32477 ft | 434 kts | 51° |
| 2026-05-04 18:23 | 46.19742 | 26.67317 | 31958 ft | 431 kts | 51° |
| 2026-05-04 18:24 | 46.21551 | 26.70756 | 31456 ft | 428 kts | 51° |
| 2026-05-04 18:24 | 46.23348 | 26.74175 | 30941 ft | 426 kts | 51° |
| 2026-05-04 18:24 | 46.25108 | 26.77537 | 30458 ft | 424 kts | 51° |
| 2026-05-04 18:24 | 46.26877 | 26.80927 | 29943 ft | 422 kts | 51° |
| 2026-05-04 18:25 | 46.28628 | 26.84300 | 29449 ft | 417 kts | 51° |
| 2026-05-04 18:25 | 46.30354 | 26.87643 | 28976 ft | 412 kts | 51° |
| 2026-05-04 18:25 | 46.32059 | 26.90956 | 28525 ft | 407 kts | 51° |
| 2026-05-04 18:25 | 46.33738 | 26.94217 | 28082 ft | 402 kts | 51° |
| 2026-05-04 18:26 | 46.35406 | 26.97451 | 27633 ft | 397 kts | 51° |
| 2026-05-04 18:26 | 46.37053 | 27.00641 | 27192 ft | 393 kts | 51° |
| 2026-05-04 18:26 | 46.38676 | 27.03789 | 26753 ft | 389 kts | 52° |
| 2026-05-04 18:26 | 46.40291 | 27.06927 | 26307 ft | 389 kts | 52° |
| 2026-05-04 18:27 | 46.41909 | 27.10071 | 25888 ft | 390 kts | 52° |
| 2026-05-04 18:27 | 46.43526 | 27.13221 | 25642 ft | 388 kts | 52° |
| 2026-05-04 18:27 | 46.45127 | 27.16347 | 25404 ft | 384 kts | 52° |
| 2026-05-04 18:27 | 46.46714 | 27.19454 | 25161 ft | 380 kts | 52° |
| 2026-05-04 18:28 | 46.48272 | 27.22517 | 24772 ft | 375 kts | 52° |
| 2026-05-04 18:28 | 46.49812 | 27.25540 | 24351 ft | 371 kts | 52° |
| 2026-05-04 18:28 | 46.51338 | 27.28526 | 23925 ft | 368 kts | 52° |
| 2026-05-04 18:28 | 46.52856 | 27.31498 | 23447 ft | 366 kts | 52° |
| 2026-05-04 18:29 | 46.54347 | 27.34418 | 23001 ft | 362 kts | 52° |
| 2026-05-04 18:29 | 46.55833 | 27.37336 | 22571 ft | 357 kts | 52° |
| 2026-05-04 18:29 | 46.57299 | 27.40224 | 22142 ft | 353 kts | 52° |
| 2026-05-04 18:29 | 46.58768 | 27.43121 | 21711 ft | 349 kts | 52° |
| 2026-05-04 18:30 | 46.61603 | 27.48720 | 20850 ft | 343 kts | 52° |
| 2026-05-04 18:30 | 46.63008 | 27.51500 | 20417 ft | 340 kts | 52° |
| 2026-05-04 18:30 | 46.64404 | 27.54267 | 19996 ft | 337 kts | 52° |
| 2026-05-04 18:31 | 46.65789 | 27.57012 | 19574 ft | 335 kts | 52° |
| 2026-05-04 18:31 | 46.67165 | 27.59736 | 19140 ft | 333 kts | 52° |
| 2026-05-04 18:31 | 46.68533 | 27.62445 | 18727 ft | 331 kts | 53° |
| 2026-05-04 18:31 | 46.69893 | 27.65144 | 18310 ft | 330 kts | 53° |
| 2026-05-04 18:32 | 46.71245 | 27.67829 | 17863 ft | 327 kts | 53° |
| 2026-05-04 18:32 | 46.72583 | 27.70490 | 17448 ft | 324 kts | 53° |
| 2026-05-04 18:32 | 46.73906 | 27.73132 | 17042 ft | 321 kts | 53° |
| 2026-05-04 18:32 | 46.75218 | 27.75749 | 16649 ft | 318 kts | 52° |
| 2026-05-04 18:33 | 46.76520 | 27.78344 | 16253 ft | 316 kts | 52° |
| 2026-05-04 18:33 | 46.77809 | 27.80914 | 15869 ft | 313 kts | 52° |
| 2026-05-04 18:33 | 46.79086 | 27.83471 | 15487 ft | 311 kts | 53° |
| 2026-05-04 18:33 | 46.80353 | 27.86009 | 15106 ft | 308 kts | 53° |
| 2026-05-04 18:34 | 46.81597 | 27.88502 | 14727 ft | 306 kts | 53° |
| 2026-05-04 18:34 | 46.82845 | 27.91005 | 14347 ft | 304 kts | 53° |
| 2026-05-04 18:34 | 46.84086 | 27.93494 | 13967 ft | 302 kts | 53° |
| 2026-05-04 18:34 | 46.85320 | 27.95972 | 13562 ft | 301 kts | 52° |
| 2026-05-04 18:35 | 46.86550 | 27.98442 | 13128 ft | 299 kts | 52° |
| 2026-05-04 18:35 | 46.87769 | 28.00893 | 12738 ft | 297 kts | 52° |
| 2026-05-04 18:35 | 46.88971 | 28.03319 | 12359 ft | 294 kts | 52° |
| 2026-05-04 18:35 | 46.90163 | 28.05729 | 11973 ft | 291 kts | 52° |
| 2026-05-04 18:36 | 46.91322 | 28.08154 | 11462 ft | 294 kts | 58° |
| 2026-05-04 18:36 | 46.91977 | 28.11061 | 10668 ft | 313 kts | 79° |
| 2026-05-04 18:36 | 46.92025 | 28.14266 | 10309 ft | 311 kts | 84° |
| 2026-05-04 18:36 | 46.92024 | 28.17366 | 10183 ft | 298 kts | 84° |
| 2026-05-04 18:37 | 46.92022 | 28.20337 | 10060 ft | 287 kts | 84° |
| 2026-05-04 18:37 | 46.92024 | 28.23215 | 9825 ft | 280 kts | 83° |
| 2026-05-04 18:37 | 46.92032 | 28.26042 | 9456 ft | 277 kts | 83° |
| 2026-05-04 18:37 | 46.92044 | 28.28857 | 9025 ft | 277 kts | 84° |
| 2026-05-04 18:38 | 46.92058 | 28.31687 | 8430 ft | 282 kts | 84° |
| 2026-05-04 18:38 | 46.92069 | 28.34583 | 7867 ft | 286 kts | 84° |
| 2026-05-04 18:38 | 46.92076 | 28.37490 | 7423 ft | 285 kts | 85° |
| 2026-05-04 18:38 | 46.92081 | 28.40363 | 6967 ft | 279 kts | 84° |
| 2026-05-04 18:39 | 46.92039 | 28.43190 | 6204 ft | 280 kts | 93° |
| 2026-05-04 18:39 | 46.91750 | 28.46003 | 5408 ft | 278 kts | 90° |
| 2026-05-04 18:39 | 46.91744 | 28.48791 | 4852 ft | 267 kts | 85° |
| 2026-05-04 18:39 | 46.91833 | 28.51391 | 4731 ft | 249 kts | 85° |
| 2026-05-04 18:40 | 46.91902 | 28.53866 | 4610 ft | 237 kts | 85° |
| 2026-05-04 18:40 | 46.91957 | 28.56179 | 4490 ft | 225 kts | 85° |
| 2026-05-04 18:40 | 46.92010 | 28.58417 | 4356 ft | 216 kts | 85° |
| 2026-05-04 18:40 | 46.92060 | 28.60551 | 4251 ft | 204 kts | 85° |
| 2026-05-04 18:41 | 46.92108 | 28.62587 | 4106 ft | 197 kts | 85° |
| 2026-05-04 18:41 | 46.92154 | 28.64577 | 3886 ft | 194 kts | 85° |
| 2026-05-04 18:41 | 46.92197 | 28.66486 | 3738 ft | 185 kts | 85° |
| 2026-05-04 18:41 | 46.92235 | 28.68368 | 3404 ft | 184 kts | 86° |
| 2026-05-04 18:42 | 46.92258 | 28.70205 | 3172 ft | 178 kts | 86° |
| 2026-05-04 18:42 | 46.92303 | 28.71994 | 2916 ft | 174 kts | 85° |
| 2026-05-04 18:42 | 46.92358 | 28.73730 | 2688 ft | 168 kts | 86° |
| 2026-05-04 18:42 | 46.92397 | 28.75429 | 2432 ft | 164 kts | 87° |
| 2026-05-04 18:43 | 46.92415 | 28.77038 | 2242 ft | 150 kts | 87° |
| 2026-05-04 18:43 | 46.92445 | 28.78519 | 2031 ft | 144 kts | 85° |
| 2026-05-04 18:43 | 46.92493 | 28.79966 | 1856 ft | 142 kts | 87° |
| 2026-05-04 18:43 | 46.92513 | 28.81413 | 1700 ft | 143 kts | 88° |
| 2026-05-04 18:44 | 46.92542 | 28.82902 | 1495 ft | 148 kts | 86° |
| 2026-05-04 18:44 | 46.92559 | 28.83386 | 1430 ft | 147 kts | 86° |
| 2026-05-04 18:44 | 46.92627 | 28.85870 | 1093 ft | 148 kts | 89° |
| 2026-05-04 18:44 | 46.92657 | 28.87386 | 891 ft | 150 kts | 88° |
| 2026-05-04 18:45 | 46.92709 | 28.88919 | 667 ft | 151 kts | 89° |
| 2026-05-04 18:45 | 46.92731 | 28.90423 | 469 ft | 149 kts | 89° |
| 2026-05-04 18:45 | 46.92753 | 28.91843 | 378 ft | 107 kts | 89° |
| 2026-05-04 18:45 | 46.92768 | 28.92492 | 364 ft | 29 kts | 88° |
| 2026-05-04 18:46 | 46.92775 | 28.92810 | 354 ft | 33 kts | 88° |
| 2026-05-04 18:46 | 46.92781 | 28.93191 | 344 ft | 41 kts | 89° |
| 2026-05-04 18:46 | 46.92821 | 28.93418 | 340 ft | 13 kts | 19° |
| 2026-05-04 18:46 | 46.92882 | 28.93410 | 340 ft | 7 kts | 358° |
| 2026-05-04 18:47 | 46.92924 | 28.93410 | 338 ft | 5 kts | 0° |
| 2026-05-04 18:47 | 46.92949 | 28.93410 | 346 ft | 5 kts | 0° |
| 2026-05-04 18:47 | 46.93018 | 28.93416 | 352 ft | 13 kts | 6° |
| 2026-05-04 18:47 | 46.93096 | 28.93429 | 347 ft | 9 kts | 7° |
| 2026-05-04 18:48 | 46.93142 | 28.93455 | 347 ft | 6 kts | 52° |
| 2026-05-04 18:48 | 46.93144 | 28.93521 | 349 ft | 9 kts | 102° |
| 2026-05-04 18:48 | 46.93137 | 28.93597 | 354 ft | 5 kts | 83° |
| 2026-05-04 18:48 | 46.93153 | 28.93620 | 362 ft | 2 kts | 32° |
| 2026-05-04 18:49 | 46.93184 | 28.93626 | 355 ft | 10 kts | 9° |
| 2026-05-04 18:49 | 46.93254 | 28.93648 | 356 ft | 7 kts | 31° |
| 2026-05-04 18:49 | 46.93263 | 28.93697 | 358 ft | 3 kts | 91° |
| 2026-05-04 18:49 | 46.93263 | 28.93708 | 352 ft | 1 kts | 96° |
| 2026-05-04 18:50 | 46.93260 | 28.93734 | 354 ft | 0 kts | 95° |